createdAt,value
2022-09-14T00:01:25.349Z,98076.44
2022-09-14T00:04:01.518Z,98082.91
2022-09-14T00:06:29.545Z,98074.28
2022-09-14T00:08:59.212Z,98074.97
2022-09-14T00:11:28.045Z,98081.66
2022-09-14T00:13:57.504Z,98086.56
2022-09-14T00:16:30.185Z,98075.59
2022-09-14T00:19:08.801Z,98077.19
2022-09-14T00:21:37.749Z,98088.88
2022-09-14T00:24:07.393Z,98086.19
2022-09-14T00:26:35.262Z,98080.41
2022-09-14T00:29:06.185Z,98087.69
2022-09-14T00:31:38.840Z,98090.47
2022-09-14T00:34:08.538Z,98096.66
2022-09-14T00:36:40.591Z,98096.84
2022-09-14T00:39:08.877Z,98094.59
2022-09-14T00:41:38.844Z,98094.75
2022-09-14T00:44:28.461Z,98096.63
2022-09-14T00:46:57.689Z,98099.31
2022-09-14T00:49:30.045Z,98100.16
2022-09-14T00:52:09.341Z,98098.63
2022-09-14T00:54:49.114Z,98101.66
2022-09-14T00:57:17.845Z,98107.53
2022-09-14T00:59:46.927Z,98106.28
2022-09-14T01:02:17.226Z,98089.13
2022-09-14T01:04:44.802Z,98092.16
2022-09-14T01:07:23.722Z,98094.69
2022-09-14T01:52:08.570Z,98104.56
2022-09-14T01:55:00.291Z,98111.00
2022-09-14T01:57:43.388Z,98115.88
2022-09-14T02:00:16.466Z,98110.91
2022-09-14T02:02:55.682Z,98102.78
2022-09-14T02:05:37.429Z,98113.59
2022-09-14T02:08:06.145Z,98110.50
2022-09-14T02:10:33.480Z,98115.22
2022-09-14T02:13:00.781Z,98110.50
2022-09-14T02:15:28.339Z,98115.91
2022-09-14T02:17:55.995Z,98104.94
2022-09-14T02:20:32.765Z,98111.91
2022-09-14T02:23:00.257Z,98106.25
2022-09-14T02:25:27.790Z,98105.00
2022-09-14T02:27:55.847Z,98104.59
2022-09-14T02:30:22.787Z,98105.03
2022-09-14T02:33:09.427Z,98105.38
2022-09-14T02:35:41.859Z,98102.78
2022-09-14T02:38:19.854Z,98109.47
2022-09-14T02:41:19.459Z,98117.59
2022-09-14T02:43:52.096Z,98116.75
2022-09-14T02:46:31.102Z,98115.03
2022-09-14T02:49:43.731Z,98117.03
2022-09-14T02:52:31.998Z,98107.66
2022-09-14T02:55:13.114Z,98110.38
2022-09-14T02:58:10.554Z,98123.06
2022-09-14T03:00:46.903Z,98111.53
2022-09-14T03:03:16.388Z,98113.38
2022-09-14T03:05:44.071Z,98117.09
2022-09-14T03:08:11.529Z,98118.94
2022-09-14T03:10:39.159Z,98120.78
2022-09-14T03:13:06.344Z,98110.97
2022-09-14T03:15:33.549Z,98114.13
2022-09-14T03:18:00.756Z,98113.72
2022-09-14T03:20:29.880Z,98116.56
2022-09-14T03:22:59.965Z,98113.16
2022-09-14T03:25:28.215Z,98112.75
2022-09-14T03:27:58.324Z,98112.03
2022-09-14T03:30:27.019Z,98115.03
2022-09-14T03:32:54.185Z,98116.03
2022-09-14T03:35:21.294Z,98117.03
2022-09-14T03:37:49.391Z,98115.19
2022-09-14T03:40:21.649Z,98125.84
2022-09-14T03:42:51.486Z,98130.53
2022-09-14T03:45:20.006Z,98127.13
2022-09-14T03:47:48.298Z,98138.22
2022-09-14T03:50:16.682Z,98136.56
2022-09-14T03:52:44.223Z,98137.84
2022-09-14T03:55:11.807Z,98151.38
2022-09-14T03:57:39.670Z,98150.94
2022-09-14T04:00:07.937Z,98145.13
2022-09-14T04:02:40.541Z,98155.50
2022-09-14T04:05:08.174Z,98160.91
2022-09-14T04:07:35.950Z,98162.59
2022-09-14T04:10:06.520Z,98158.38
2022-09-14T04:12:38.280Z,98171.44
2022-09-14T04:15:07.324Z,98168.31
2022-09-14T04:17:34.699Z,98171.72
2022-09-14T04:20:01.825Z,98172.41
2022-09-14T04:22:28.737Z,98184.78
2022-09-14T04:24:55.704Z,98172.13
2022-09-14T04:27:22.661Z,98172.13
2022-09-14T04:29:50.743Z,98174.69
2022-09-14T04:32:17.919Z,98183.50
2022-09-14T04:34:44.815Z,98176.94
2022-09-14T04:37:11.772Z,98169.72
2022-09-14T04:39:39.012Z,98179.78
2022-09-14T04:42:06.531Z,98181.19
2022-09-14T04:44:33.423Z,98184.59
2022-09-14T04:47:00.370Z,98185.31
2022-09-14T04:49:27.409Z,98185.59
2022-09-14T04:51:54.263Z,98175.19
2022-09-14T04:54:21.865Z,98181.84
2022-09-14T04:56:49.143Z,98199.50
2022-09-14T04:59:16.182Z,98189.25
2022-09-14T05:01:47.672Z,98191.50
2022-09-14T05:04:14.986Z,98182.25
2022-09-14T05:06:43.334Z,98182.63
2022-09-14T05:09:16.778Z,98186.34
2022-09-14T05:11:44.286Z,98184.03
2022-09-14T05:14:13.502Z,98186.75
2022-09-14T05:16:41.876Z,98185.34
2022-09-14T05:19:13.484Z,98195.41
2022-09-14T05:21:40.454Z,98199.78
2022-09-14T05:24:12.676Z,98193.88
2022-09-14T05:26:39.801Z,98194.69
2022-09-14T05:29:06.803Z,98197.03
2022-09-14T05:31:34.275Z,98196.50
2022-09-14T05:34:01.258Z,98197.59
2022-09-14T05:36:28.278Z,98197.44
2022-09-14T05:38:55.474Z,98203.56
2022-09-14T05:41:22.447Z,98206.59
2022-09-14T05:43:49.506Z,98212.31
2022-09-14T05:46:20.512Z,98205.50
2022-09-14T05:48:48.082Z,98208.97
2022-09-14T05:51:19.206Z,98211.56
2022-09-14T05:53:51.114Z,98211.56
2022-09-14T05:56:19.614Z,98208.88
2022-09-14T05:58:47.741Z,98207.44
2022-09-14T06:01:25.004Z,98204.16
2022-09-14T06:04:03.097Z,98196.31
2022-09-14T06:06:32.123Z,98197.91
2022-09-14T06:08:59.896Z,98198.28
2022-09-14T06:11:30.851Z,98192.16
2022-09-14T06:13:58.177Z,98190.19
2022-09-14T06:16:26.872Z,98197.16
2022-09-14T06:18:56.566Z,98193.00
2022-09-14T06:21:23.874Z,98186.88
2022-09-14T06:23:52.035Z,98181.16
2022-09-14T06:26:19.287Z,98183.22
2022-09-14T06:28:47.577Z,98178.47
2022-09-14T06:31:15.489Z,98181.19
2022-09-14T06:33:47.886Z,98185.28
2022-09-14T06:36:19.783Z,98191.75
2022-09-14T06:38:50.173Z,98181.56
2022-09-14T06:41:20.548Z,98182.94
2022-09-14T06:43:48.999Z,98194.47
2022-09-14T06:46:19.310Z,98185.16
2022-09-14T06:49:01.289Z,98193.16
2022-09-14T06:51:36.905Z,98198.06
2022-09-14T06:54:05.354Z,98193.31
2022-09-14T06:56:35.147Z,98196.81
2022-09-14T06:59:02.589Z,98194.75
2022-09-14T07:01:30.109Z,98203.59
2022-09-14T07:03:58.430Z,98195.41
2022-09-14T07:06:28.027Z,98196.25
2022-09-14T07:08:56.115Z,98207.31
2022-09-14T07:11:26.161Z,98199.28
2022-09-14T07:13:56.591Z,98198.41
2022-09-14T07:16:24.613Z,98198.69
2022-09-14T07:18:56.096Z,98203.41
2022-09-14T07:21:24.664Z,98198.25
2022-09-14T07:23:52.209Z,98196.22
2022-09-14T07:26:29.936Z,98198.59
2022-09-14T07:29:00.384Z,98197.16
2022-09-14T07:31:29.586Z,98189.41
2022-09-14T07:33:58.820Z,98187.75
2022-09-14T07:36:31.491Z,98181.47
2022-09-14T07:39:03.257Z,98178.91
2022-09-14T07:41:32.276Z,98177.06
2022-09-14T07:44:01.832Z,98175.66
2022-09-14T07:46:31.066Z,98178.31
2022-09-14T07:49:00.403Z,98176.53
2022-09-14T07:51:28.748Z,98175.50
2022-09-14T07:53:56.290Z,98189.25
2022-09-14T07:56:25.428Z,98183.38
2022-09-14T07:59:31.259Z,98178.88
2022-09-14T08:01:47.528Z,98171.66
2022-09-14T08:04:14.606Z,98179.22
2022-09-14T08:06:41.422Z,98174.88
2022-09-14T08:09:09.009Z,98177.13
2022-09-14T08:11:37.030Z,98176.38
2022-09-14T08:14:12.704Z,98172.31
2022-09-14T08:16:40.943Z,98174.38
2022-09-14T08:19:15.792Z,98161.81
2022-09-14T08:21:46.944Z,98163.09
2022-09-14T08:24:17.306Z,98156.44
2022-09-14T08:26:44.589Z,98162.63
2022-09-14T08:29:14.076Z,98152.94
2022-09-14T08:31:42.991Z,98156.16
2022-09-14T08:34:10.463Z,98153.03
2022-09-14T08:36:40.162Z,98155.00
2022-09-14T08:39:10.788Z,98141.94
2022-09-14T08:41:40.637Z,98144.56
2022-09-14T08:44:10.210Z,98141.50
2022-09-14T08:46:43.962Z,98138.19
2022-09-14T08:49:22.086Z,98136.41
2022-09-14T08:51:50.985Z,98135.06
2022-09-14T08:54:18.989Z,98131.94
2022-09-14T08:56:52.873Z,98123.72
2022-09-14T08:59:38.398Z,98132.00
2022-09-14T09:02:26.442Z,98139.66
2022-09-14T09:05:23.308Z,98141.34
2022-09-14T09:08:10.439Z,98136.31
2022-09-14T09:10:40.580Z,98134.00
2022-09-14T09:13:11.967Z,98129.59
2022-09-14T09:15:45.133Z,98131.06
2022-09-14T09:18:32.215Z,98128.75
2022-09-14T09:21:07.612Z,98121.34
2022-09-14T09:23:36.028Z,98132.56
2022-09-14T09:26:32.672Z,98125.81
2022-09-14T09:29:02.729Z,98121.56
2022-09-14T09:31:54.761Z,98114.78
2022-09-14T09:34:41.943Z,98113.28
2022-09-14T09:37:24.849Z,98110.91
2022-09-14T09:39:52.248Z,98106.19
2022-09-14T09:42:24.975Z,98104.66
2022-09-14T09:45:05.781Z,98101.97
2022-09-14T09:47:40.278Z,98101.50
2022-09-14T09:50:13.686Z,98112.97
2022-09-14T09:53:04.538Z,98113.72
2022-09-14T09:55:39.905Z,98103.81
2022-09-14T09:58:28.828Z,98105.66
2022-09-14T10:01:26.530Z,98099.75
2022-09-14T10:04:14.416Z,98085.38
2022-09-14T10:06:47.839Z,98083.59
2022-09-14T10:09:31.025Z,98074.66
2022-09-14T10:12:02.506Z,98068.50
2022-09-14T10:14:36.478Z,98057.84
2022-09-14T10:17:23.670Z,98049.31
2022-09-14T10:19:54.268Z,98051.19
2022-09-14T10:22:33.398Z,98057.44
2022-09-14T10:25:24.073Z,98059.91
2022-09-14T10:27:57.195Z,98048.84
2022-09-14T10:30:34.911Z,98035.69
2022-09-14T10:33:08.805Z,98040.94
2022-09-14T10:36:07.063Z,98038.09
2022-09-14T10:38:39.448Z,98043.09
2022-09-14T10:41:31.998Z,98034.00
2022-09-14T10:44:34.483Z,98042.88
2022-09-14T10:47:32.815Z,98044.19
2022-09-14T10:50:42.669Z,98034.66
2022-09-14T10:53:31.703Z,98024.28
2022-09-14T10:56:20.013Z,98017.78
2022-09-14T10:59:06.517Z,98013.28
2022-09-14T11:01:52.006Z,97997.47
2022-09-14T11:04:43.112Z,97995.94
2022-09-14T11:07:12.968Z,98001.50
2022-09-14T11:10:20.521Z,97991.41
2022-09-14T11:13:18.136Z,97986.38
2022-09-14T11:16:03.593Z,97989.31
2022-09-14T11:18:51.874Z,97984.00
2022-09-14T11:21:24.682Z,97986.34
2022-09-14T11:23:55.203Z,97984.72
2022-09-14T11:26:45.743Z,97981.03
2022-09-14T11:29:27.397Z,97984.00
2022-09-14T11:32:21.544Z,97977.56
2022-09-14T11:34:58.059Z,97968.38
2022-09-14T11:37:47.020Z,97972.63
2022-09-14T11:40:20.193Z,97982.94
2022-09-14T11:42:57.431Z,97971.19
2022-09-14T11:45:30.793Z,97976.47
2022-09-14T11:48:12.475Z,97972.06
2022-09-14T11:51:00.414Z,97966.81
2022-09-14T11:53:27.775Z,97970.91
2022-09-14T11:55:54.850Z,97975.50
2022-09-14T11:58:24.866Z,97969.81
2022-09-14T12:00:51.741Z,97966.44
2022-09-14T12:03:22.219Z,97972.13
2022-09-14T12:05:50.526Z,97972.50
2022-09-14T12:08:36.636Z,97962.84
2022-09-14T12:11:03.800Z,97969.56
2022-09-14T12:13:31.705Z,97955.97
2022-09-14T12:16:07.677Z,97959.06
2022-09-14T12:18:40.428Z,97960.16
2022-09-14T12:21:23.439Z,97955.72
2022-09-14T12:23:57.236Z,97954.84
2022-09-14T12:26:24.140Z,97958.94
2022-09-14T12:28:56.193Z,97959.34
2022-09-14T12:31:32.965Z,97963.47
2022-09-14T12:34:18.367Z,97966.94
2022-09-14T12:36:45.272Z,97964.28
2022-09-14T12:39:30.777Z,97957.38
2022-09-14T12:42:00.581Z,97955.84
2022-09-14T12:44:37.144Z,97960.19
2022-09-14T12:47:25.235Z,97957.00
2022-09-14T12:50:01.028Z,97942.06
2022-09-14T12:52:34.943Z,97935.25
2022-09-14T12:55:08.103Z,97928.91
2022-09-14T12:57:53.683Z,97920.03
2022-09-14T13:00:22.726Z,97921.78
2022-09-14T13:03:28.098Z,97928.69
2022-09-14T13:05:55.603Z,97922.28
2022-09-14T13:08:24.722Z,97920.16
2022-09-14T13:10:52.903Z,97923.19
2022-09-14T13:13:24.456Z,97926.13
2022-09-14T13:15:58.287Z,97919.22
2022-09-14T13:18:29.672Z,97916.19
2022-09-14T13:21:02.047Z,97915.75
2022-09-14T13:23:41.102Z,97916.69
2022-09-14T13:26:15.945Z,97903.81
2022-09-14T13:28:46.231Z,97907.25
2022-09-14T13:31:17.654Z,97908.44
2022-09-14T13:33:53.297Z,97907.31
2022-09-14T13:36:25.642Z,97900.56
2022-09-14T13:38:54.650Z,97905.81
2022-09-14T13:41:23.461Z,97900.19
2022-09-14T13:43:54.983Z,97896.53
2022-09-14T13:46:24.257Z,97894.75
2022-09-14T13:48:52.427Z,97894.25
2022-09-14T13:51:29.022Z,97889.22
2022-09-14T13:53:58.374Z,97893.41
2022-09-14T13:56:27.066Z,97885.63
2022-09-14T13:59:11.020Z,97884.88
2022-09-14T14:02:00.048Z,97889.88
2022-09-14T14:04:35.797Z,97885.59
2022-09-14T14:07:17.386Z,97875.56
2022-09-14T14:09:56.210Z,97874.91
2022-09-14T14:12:47.785Z,97881.38
2022-09-14T14:15:22.604Z,97871.00
2022-09-14T14:17:49.913Z,97883.25
2022-09-14T14:20:38.978Z,97880.13
2022-09-14T14:23:06.189Z,97877.03
2022-09-14T14:25:42.127Z,97867.75
2022-09-14T14:28:25.520Z,97861.75
2022-09-14T14:30:54.505Z,97854.75
2022-09-14T14:33:22.715Z,97851.63
2022-09-14T14:35:53.515Z,97846.09
2022-09-14T14:38:23.445Z,97842.00
2022-09-14T14:40:52.344Z,97844.09
2022-09-14T14:43:24.029Z,97846.03
2022-09-14T14:45:59.566Z,97837.09
2022-09-14T14:48:28.995Z,97838.13
2022-09-14T14:50:55.873Z,97834.19
2022-09-14T14:53:24.707Z,97847.13
2022-09-14T14:55:52.449Z,97837.72
2022-09-14T14:58:21.524Z,97836.06
2022-09-14T15:00:48.624Z,97828.31
2022-09-14T15:03:17.113Z,97836.25
2022-09-14T15:05:45.834Z,97839.63
2022-09-14T15:08:17.342Z,97835.69
2022-09-14T15:10:44.571Z,97833.31
2022-09-14T15:13:12.662Z,97834.59
2022-09-14T15:15:43.049Z,97831.28
2022-09-14T15:18:10.598Z,97831.81
2022-09-14T15:20:38.072Z,97831.34
2022-09-14T15:23:05.228Z,97836.94
2022-09-14T15:25:32.462Z,97837.09
2022-09-14T15:28:00.722Z,97833.06
2022-09-14T15:30:27.682Z,97833.34
2022-09-14T15:32:54.865Z,97832.03
2022-09-14T15:35:22.002Z,97828.97
2022-09-14T15:37:48.958Z,97810.84
2022-09-14T15:40:16.195Z,97821.66
2022-09-14T15:42:43.252Z,97822.94
2022-09-14T15:45:10.895Z,97821.66
2022-09-14T15:47:37.948Z,97821.63
2022-09-14T15:50:06.281Z,97818.53
2022-09-14T15:52:37.421Z,97815.19
2022-09-14T15:55:06.642Z,97807.63
2022-09-14T15:57:34.106Z,97802.09
2022-09-14T16:00:01.661Z,97802.25
2022-09-14T16:02:28.816Z,97806.59
2022-09-14T16:04:55.925Z,97800.09
2022-09-14T16:07:24.498Z,97814.53
2022-09-14T16:09:51.455Z,97812.31
2022-09-14T16:12:18.349Z,97818.91
2022-09-14T16:14:45.268Z,97818.13
2022-09-14T16:17:12.273Z,97816.22
2022-09-14T16:19:39.228Z,97811.16
2022-09-14T16:22:06.587Z,97814.84
2022-09-14T16:24:33.864Z,97808.78
2022-09-14T16:27:01.052Z,97810.25
2022-09-14T16:29:28.815Z,97801.63
2022-09-14T16:31:56.061Z,97802.00
2022-09-14T16:34:28.784Z,97800.69
2022-09-14T16:36:58.872Z,97794.25
2022-09-14T16:39:29.702Z,97813.63
2022-09-14T16:41:57.467Z,97808.84
2022-09-14T16:44:27.959Z,97822.84
2022-09-14T16:46:57.789Z,97818.44
2022-09-14T16:49:27.876Z,97819.53
2022-09-14T16:51:56.592Z,97817.31
2022-09-14T16:54:25.684Z,97815.47
2022-09-14T16:56:59.770Z,97819.09
2022-09-14T16:59:27.892Z,97829.75
2022-09-14T17:01:55.635Z,97825.50
2022-09-14T17:04:24.330Z,97816.28
2022-09-14T17:06:53.183Z,97818.94
2022-09-14T17:09:27.419Z,97812.72
2022-09-14T17:11:55.595Z,97823.78
2022-09-14T17:14:25.788Z,97823.00
2022-09-14T17:16:53.676Z,97823.25
2022-09-14T17:19:21.077Z,97824.06
2022-09-14T17:21:48.600Z,97826.44
2022-09-14T17:24:17.539Z,97827.47
2022-09-14T17:26:44.890Z,97820.00
2022-09-14T17:29:12.173Z,97819.09
2022-09-14T17:31:41.725Z,97821.09
2022-09-14T17:34:11.763Z,97822.50
2022-09-14T17:36:39.071Z,97829.41
2022-09-14T17:39:11.696Z,97824.44
2022-09-14T17:41:40.242Z,97821.38
2022-09-14T17:44:08.066Z,97825.53
2022-09-14T17:46:39.739Z,97827.09
2022-09-14T17:49:13.671Z,97825.72
2022-09-14T17:51:41.051Z,97827.09
2022-09-14T17:54:09.067Z,97839.72
2022-09-14T17:56:36.808Z,97840.91
2022-09-14T17:59:22.504Z,97847.81
2022-09-14T18:01:50.353Z,97859.34
2022-09-14T18:04:18.020Z,97864.06
2022-09-14T18:06:48.092Z,97852.50
2022-09-14T18:09:21.929Z,97855.09
2022-09-14T18:11:51.012Z,97869.75
2022-09-14T18:14:18.390Z,97871.28
2022-09-14T18:16:45.884Z,97872.19
2022-09-14T18:19:13.735Z,97881.75
2022-09-14T18:21:41.184Z,97885.78
2022-09-14T18:24:09.964Z,97887.66
2022-09-14T18:26:38.630Z,97879.44
2022-09-14T18:29:06.004Z,97894.22
2022-09-14T18:31:33.140Z,97890.25
2022-09-14T18:34:00.927Z,97902.69
2022-09-14T18:36:29.611Z,97896.56
2022-09-14T18:38:58.512Z,97918.31
2022-09-14T18:41:26.293Z,97927.19
2022-09-14T18:43:53.563Z,97927.59
2022-09-14T18:46:25.749Z,97922.13
2022-09-14T18:48:57.377Z,97932.63
2022-09-14T18:51:25.096Z,97934.09
2022-09-14T18:53:59.710Z,97936.75
2022-09-14T18:56:28.096Z,97930.22
2022-09-14T18:58:55.179Z,97922.19
2022-09-14T19:01:23.175Z,97932.16
2022-09-14T19:03:50.334Z,97919.06
2022-09-14T19:06:18.794Z,97920.59
2022-09-14T19:08:46.457Z,97922.94
2022-09-14T19:11:18.052Z,97921.72
2022-09-14T19:13:46.711Z,97927.66
2022-09-14T19:16:16.194Z,97936.31
2022-09-14T19:18:46.276Z,97931.72
2022-09-14T19:21:23.917Z,97940.38
2022-09-14T19:24:06.573Z,97933.22
2022-09-14T19:26:43.982Z,97935.34
2022-09-14T19:29:20.244Z,97932.81
2022-09-14T19:31:51.709Z,97934.25
2022-09-14T19:34:24.588Z,97946.94
2022-09-14T19:36:53.772Z,97956.84
2022-09-14T19:39:24.567Z,97961.03
2022-09-14T19:41:55.026Z,97950.06
2022-09-14T19:44:25.005Z,97956.84
2022-09-14T19:46:52.246Z,97949.81
2022-09-14T19:49:22.332Z,97947.72
2022-09-14T19:51:50.186Z,97958.88
2022-09-14T19:54:17.931Z,97971.41
2022-09-14T19:56:46.435Z,97965.69
2022-09-14T19:59:14.238Z,97983.56
2022-09-14T20:01:41.562Z,97976.19
2022-09-14T20:04:10.391Z,97978.53
2022-09-14T20:06:40.904Z,97975.38
2022-09-14T20:09:22.911Z,97986.34
2022-09-14T20:11:52.629Z,97980.63
2022-09-14T20:14:22.744Z,97985.22
2022-09-14T20:16:55.849Z,97986.09
2022-09-14T20:19:26.216Z,97997.69
2022-09-14T20:21:53.841Z,97994.13
2022-09-14T20:24:25.942Z,98007.22
2022-09-14T20:26:56.036Z,98001.06
2022-09-14T20:29:25.222Z,98005.88
2022-09-14T20:31:52.795Z,98009.56
2022-09-14T20:34:21.144Z,98012.44
2022-09-14T20:36:49.824Z,97999.09
2022-09-14T20:39:17.969Z,98006.09
2022-09-14T20:41:44.995Z,98008.41
2022-09-14T20:44:12.254Z,97991.72
2022-09-14T20:46:42.513Z,97990.69
2022-09-14T20:49:16.395Z,97989.00
2022-09-14T20:51:44.231Z,98004.56
2022-09-14T20:54:14.677Z,98008.16
2022-09-14T20:56:42.426Z,98014.69
2022-09-14T20:59:13.185Z,98010.44
2022-09-14T21:01:42.491Z,98014.16
2022-09-14T21:04:12.312Z,98019.44
2022-09-14T21:06:42.059Z,98010.56
2022-09-14T21:09:10.464Z,98007.97
2022-09-14T21:11:38.082Z,98011.72
2022-09-14T21:14:05.806Z,98007.81
2022-09-14T21:16:39.983Z,98015.38
2022-09-14T21:19:11.841Z,98013.41
2022-09-14T21:21:39.302Z,98006.03
2022-09-14T21:24:08.990Z,97997.94
2022-09-14T21:26:40.518Z,98008.88
2022-09-14T21:29:13.158Z,98013.06
2022-09-14T21:31:40.323Z,98002.03
2022-09-14T21:34:10.088Z,97998.47
2022-09-14T21:36:40.128Z,97997.22
2022-09-14T21:39:21.757Z,97999.00
2022-09-14T21:41:54.479Z,98003.19
2022-09-14T21:44:28.971Z,98004.03
2022-09-14T21:46:55.937Z,97997.53
2022-09-14T21:49:22.870Z,98006.81
2022-09-14T21:51:49.972Z,98007.03
2022-09-14T21:54:17.097Z,97995.44
2022-09-14T21:56:47.257Z,97989.78
2022-09-14T21:59:18.851Z,97991.22
2022-09-14T22:01:47.269Z,97992.81
2022-09-14T22:04:18.808Z,97999.53
2022-09-14T22:06:47.540Z,98000.09
2022-09-14T22:09:17.401Z,98002.19
2022-09-14T22:11:46.112Z,97993.06
2022-09-14T22:14:17.250Z,97987.50
2022-09-14T22:16:45.220Z,97986.41
2022-09-14T22:19:25.226Z,97991.88
2022-09-14T22:21:52.475Z,98003.38
2022-09-14T22:24:25.904Z,97997.72
2022-09-14T22:26:54.763Z,97994.31
2022-09-14T22:29:21.727Z,97985.47
2022-09-14T22:31:49.576Z,97992.84
2022-09-14T22:34:17.656Z,97987.56
2022-09-14T22:36:45.345Z,97991.91
2022-09-14T22:39:12.307Z,97994.34
2022-09-14T22:41:40.261Z,97997.63
2022-09-14T22:44:08.363Z,98005.00
2022-09-14T22:46:36.245Z,97999.63
2022-09-14T22:49:03.619Z,98006.00
2022-09-14T22:51:31.053Z,98003.34
2022-09-14T22:53:58.316Z,98018.88
2022-09-14T22:56:28.230Z,98008.06
2022-09-14T22:58:56.163Z,98013.59
2022-09-14T23:01:26.933Z,98012.19
2022-09-14T23:04:02.733Z,98011.91
2022-09-14T23:06:32.475Z,98021.84
2022-09-14T23:09:03.039Z,98007.94
2022-09-14T23:11:31.412Z,98013.94
2022-09-14T23:13:59.008Z,98007.72
2022-09-14T23:16:30.454Z,98015.25
2022-09-14T23:19:02.947Z,98010.50
2022-09-14T23:21:31.477Z,98005.50
2022-09-14T23:24:02.854Z,98013.00
2022-09-14T23:26:30.742Z,98017.13
2022-09-14T23:29:04.921Z,98021.19
2022-09-14T23:31:32.571Z,98025.19
2022-09-14T23:34:01.864Z,98028.44
2022-09-14T23:36:29.575Z,98030.16
2022-09-14T23:38:57.554Z,98023.66
2022-09-14T23:41:26.319Z,98020.59
2022-09-14T23:43:53.698Z,98024.72
2022-09-14T23:46:23.592Z,98019.09
2022-09-14T23:48:51.050Z,98024.06
2022-09-14T23:51:18.861Z,98016.06
2022-09-14T23:53:46.543Z,98010.63
2022-09-14T23:56:14.225Z,98003.66
2022-09-14T23:58:42.393Z,98013.16
